Yakutsk, Russia
Current Conditions -  °F | °C
As of 1:30 AM on Sunday 26 Oct 2014 (Local Time) from UEEE Reporting Station
Clear Clear  
Wind Chill: -2°   Ceiling: Unl
Heat Index: -2°   Visibility: 6mi
Dew Point: -6°   Wind: 0mph
Humidity: 85%   Direction: NA
Pressure: 30.42"   Gusts: NA
Location:  62.05°N, 129.73°E
Report Text: UEEE 251630Z 00000MPS CAVOK M19/M21 Q1030 NOSIG RMK QFE76423490150
Loading
Personal Weather Stations






























Interactive Weather Map
Tropical Storm Tracking
New forecast layout! Learn more

10-Day Weather Forecast

Advertisements
Track Severe Weather on mobile